Time;durP1;ratioP1;P1;durP2;ratioP2;P2;SDS_P1;SDS_P2;PMS_P1;PMS_P2;Temp;Humidity;BMP_temperature;BMP_pressure;BME280_temperature;BME280_humidity;BME280_pressure;Samples;Min_cycle;Max_cycle;Signal;HPM_P1;HPM_P2
2024/04/14 00:00:01;;;;;;;;;;;;;;;17.27;68.62;101063.59;4405714;26;19930;-67
2024/04/14 00:02:16;;;;;;;;;;;;;;;17.26;68.50;101050.16;4406981;26;19943;-67
2024/04/14 00:04:19;;;;;;;;;;;;;;;17.25;68.51;101048.47;4403542;26;20437;-67
2024/04/14 00:06:22;;;;;;;;;;;;;;;17.24;68.54;101052.22;4405372;26;19942;-66
2024/04/14 00:08:27;;;;;;;;;;;;;;;17.23;68.91;101045.13;4405530;26;19930;-68
2024/04/14 00:10:28;;;;;;;;;;;;;;;17.21;68.73;101048.06;4404966;26;20247;-67
2024/04/14 00:12:34;;;;;;;;;;;;;;;17.20;68.75;101042.81;4406853;26;19931;-67
2024/04/14 00:14:37;;;;;;;;;;;;;;;17.18;68.72;101048.47;4408835;26;19937;-68
2024/04/14 00:16:43;;;;;;;;;;;;;;;17.17;68.96;101040.50;4405634;26;19930;-66
2024/04/14 00:18:46;;;;;;;;;;;;;;;17.16;68.73;101036.09;4407846;26;19930;-66
2024/04/14 00:20:50;;;;;;;;;;;;;;;17.15;68.75;101034.41;4408234;26;19931;-68
2024/04/14 00:22:51;;;;;;;;;;;;;;;17.12;69.08;101038.41;4407843;26;19937;-66
2024/04/14 00:24:57;;;;;;;;;;;;;;;17.11;68.67;101021.22;4406486;26;20404;-68
2024/04/14 00:26:58;;;;;;;;;;;;;;;17.10;68.87;101021.44;4406820;26;19930;-67
2024/04/14 00:29:02;;;;;;;;;;;;;;;17.09;68.84;101019.75;4407299;26;19949;-66
2024/04/14 00:31:03;;;;;;;;;;;;;;;17.07;68.75;101016.41;4404515;26;20454;-67
2024/04/14 00:33:07;;;;;;;;;;;;;;;17.06;68.91;101011.97;4407527;26;20375;-68
2024/04/14 00:35:11;;;;;;;;;;;;;;;17.07;68.91;101013.66;4408166;26;20292;-67
2024/04/14 00:37:14;;;;;;;;;;;;;;;17.05;69.13;101011.16;4407515;26;19930;-66
2024/04/14 00:39:15;;;;;;;;;;;;;;;17.04;68.78;101012.19;4407598;26;19931;-66
2024/04/14 00:41:19;;;;;;;;;;;;;;;17.03;69.13;101004.22;4407068;26;19970;-67
2024/04/14 00:43:20;;;;;;;;;;;;;;;17.01;68.93;101007.16;4407263;26;19937;-66
2024/04/14 00:45:24;;;;;;;;;;;;;;;17.01;68.94;100998.16;4406161;26;20304;-67
2024/04/14 00:47:25;;;;;;;;;;;;;;;16.98;69.02;100993.94;4407443;26;19945;-68
2024/04/14 00:49:29;;;;;;;;;;;;;;;16.97;69.08;100994.97;4408586;26;19930;-67
2024/04/14 00:51:32;;;;;;;;;;;;;;;16.97;69.40;100994.16;4407907;26;19930;-67
2024/04/14 00:53:36;;;;;;;;;;;;;;;16.95;69.41;100983.47;4404857;26;19962;-69
2024/04/14 00:55:37;;;;;;;;;;;;;;;16.93;69.02;100983.66;4432205;26;19933;-67
2024/04/14 00:57:42;;;;;;;;;;;;;;;16.91;69.25;100985.78;4403421;26;20579;-66
2024/04/14 00:59:43;;;;;;;;;;;;;;;16.91;69.60;100984.91;4432229;26;20390;-68
2024/04/14 01:01:46;;;;;;;;;;;;;;;16.89;69.63;100979.69;4404636;26;19989;-67
2024/04/14 01:03:48;;;;;;;;;;;;;;;16.90;69.47;100984.09;4407533;26;19934;-67
2024/04/14 01:05:54;;;;;;;;;;;;;;;16.87;69.46;100976.34;4408492;26;19940;-68
2024/04/14 01:07:57;;;;;;;;;;;;;;;16.87;69.83;100970.06;4407246;26;19945;-66
2024/04/14 01:10:02;;;;;;;;;;;;;;;16.85;69.84;100974.81;4407129;26;19931;-67
2024/04/14 01:12:03;;;;;;;;;;;;;;;16.84;69.48;100979.47;4407837;26;19937;-67
2024/04/14 01:14:07;;;;;;;;;;;;;;;16.84;69.83;100978.63;4407725;26;20015;-66
2024/04/14 01:16:08;;;;;;;;;;;;;;;16.83;69.53;100971.50;4407813;26;19937;-67
2024/04/14 01:18:11;;;;;;;;;;;;;;;16.82;69.73;100967.06;4406697;26;19930;-67
2024/04/14 01:20:12;;;;;;;;;;;;;;;16.81;69.88;100968.13;4407789;26;20365;-67
2024/04/14 01:22:16;;;;;;;;;;;;;;;16.80;69.57;100963.72;4405929;26;19999;-67
2024/04/14 01:24:20;;;;;;;;;;;;;;;16.79;69.82;100962.06;4407720;26;19937;-67
2024/04/14 01:26:27;;;;;;;;;;;;;;;16.78;69.86;100955.75;4407358;26;19931;-67
2024/04/14 01:28:28;;;;;;;;;;;;;;;16.76;70.18;100953.25;4407514;26;20000;-67
2024/04/14 01:30:31;;;;;;;;;;;;;;;16.75;70.12;100945.28;4408010;26;20272;-67
2024/04/14 01:32:33;;;;;;;;;;;;;;;16.74;70.18;100946.34;4407802;26;19930;-67
2024/04/14 01:34:37;;;;;;;;;;;;;;;16.73;69.91;100948.22;4407146;26;19930;-66
2024/04/14 01:36:38;;;;;;;;;;;;;;;16.72;70.27;100946.56;4407747;26;20365;-67
2024/04/14 01:38:41;;;;;;;;;;;;;;;16.70;70.29;100945.09;4407179;26;19937;-67
2024/04/14 01:40:42;;;;;;;;;;;;;;;16.69;70.48;100940.66;4406606;26;20269;-67
2024/04/14 01:42:49;;;;;;;;;;;;;;;16.68;70.48;100939.00;4405736;26;20082;-68
2024/04/14 01:44:50;;;;;;;;;;;;;;;16.67;70.15;100934.59;4407907;26;19937;-67
2024/04/14 01:46:53;;;;;;;;;;;;;;;16.66;70.46;100946.53;4403674;26;19931;-67
2024/04/14 01:48:54;;;;;;;;;;;;;;;16.65;70.47;100942.16;4403958;26;20371;-67
2024/04/14 01:50:58;;;;;;;;;;;;;;;16.64;70.66;100938.56;4404247;26;19930;-68
2024/04/14 01:52:59;;;;;;;;;;;;;;;16.63;70.58;100933.34;4407500;26;19938;-67
2024/04/14 01:55:00;;;;;;;;;;;;;;;16.62;70.88;100934.41;4404910;26;20352;-67
2024/04/14 01:57:04;;;;;;;;;;;;;;;16.61;70.81;100932.72;4407403;26;20264;-67
2024/04/14 01:59:07;;;;;;;;;;;;;;;16.58;70.83;100926.66;4406398;26;19939;-67
2024/04/14 02:01:11;;;;;;;;;;;;;;;16.58;70.66;100928.50;4406593;26;20359;-67
2024/04/14 02:03:12;;;;;;;;;;;;;;;16.57;70.99;100933.13;4407526;26;19942;-67
2024/04/14 02:05:15;;;;;;;;;;;;;;;16.56;71.01;100931.44;4406455;26;19942;-67
2024/04/14 02:07:16;;;;;;;;;;;;;;;16.57;70.95;100926.88;4406878;26;19937;-67
2024/04/14 02:09:20;;;;;;;;;;;;;;;16.55;70.88;100932.53;4406910;26;19931;-67
2024/04/14 02:11:21;;;;;;;;;;;;;;;16.55;70.90;100923.50;4405617;26;20346;-68
2024/04/14 02:13:25;;;;;;;;;;;;;;;16.54;71.10;100922.66;4406034;26;19930;-67
2024/04/14 02:15:28;;;;;;;;;;;;;;;16.53;71.30;100934.59;4431955;26;20467;-68
2024/04/14 02:17:32;;;;;;;;;;;;;;;16.53;71.02;100926.41;4403143;26;19958;-67
2024/04/14 02:19:33;;;;;;;;;;;;;;;16.52;71.37;100930.22;4403986;26;19934;-67
2024/04/14 02:21:36;;;;;;;;;;;;;;;16.52;71.32;100926.63;4406159;26;20421;-67
2024/04/14 02:23:38;;;;;;;;;;;;;;;16.51;71.29;100930.44;4433985;26;19930;-67
2024/04/14 02:25:42;;;;;;;;;;;;;;;16.49;71.35;100925.19;4405908;26;20272;-68
2024/04/14 02:27:43;;;;;;;;;;;;;;;16.48;71.50;100918.06;4404303;26;20280;-68
2024/04/14 02:29:46;;;;;;;;;;;;;;;16.48;71.55;100922.69;4405165;26;19930;-66
2024/04/14 02:31:50;;;;;;;;;;;;;;;16.48;71.40;100925.41;4406423;26;20373;-67
2024/04/14 02:33:54;;;;;;;;;;;;;;;16.46;71.65;100931.06;4403950;26;19954;-67
2024/04/14 02:35:55;;;;;;;;;;;;;;;16.46;71.65;100936.53;4433335;26;19929;-67
2024/04/14 02:37:59;;;;;;;;;;;;;;;16.46;71.50;100941.13;4433086;26;19929;-67
2024/04/14 02:40:00;;;;;;;;;;;;;;;16.44;71.67;100944.06;4407229;26;19930;-67
2024/04/14 02:42:04;;;;;;;;;;;;;;;16.44;71.60;100951.41;4406209;26;20439;-67
2024/04/14 02:44:05;;;;;;;;;;;;;;;16.43;71.65;100949.75;4405967;26;19930;-66
2024/04/14 02:46:09;;;;;;;;;;;;;;;16.42;72.01;100945.31;4405078;26;19999;-67
2024/04/14 02:48:13;;;;;;;;;;;;;;;16.40;71.70;100945.53;4405234;26;19930;-67
2024/04/14 02:50:16;;;;;;;;;;;;;;;16.40;71.92;100942.81;4406330;26;19938;-67
2024/04/14 02:52:17;;;;;;;;;;;;;;;16.39;72.16;100955.63;4405369;26;20007;-67
2024/04/14 02:54:23;;;;;;;;;;;;;;;16.37;72.38;100948.69;4403653;26;20265;-66
2024/04/14 02:56:24;;;;;;;;;;;;;;;16.36;72.25;100952.44;4406006;26;19938;-67
2024/04/14 02:58:27;;;;;;;;;;;;;;;16.35;72.60;100951.63;4404603;26;20009;-66
2024/04/14 03:00:28;;;;;;;;;;;;;;;16.34;72.58;100947.22;4405857;26;19974;-67
2024/04/14 03:02:33;;;;;;;;;;;;;;;16.34;72.56;100949.09;4406275;26;19998;-67
2024/04/14 03:04:36;;;;;;;;;;;;;;;16.31;72.90;100944.91;4406514;26;19946;-66
2024/04/14 03:06:40;;;;;;;;;;;;;;;16.31;72.96;100944.91;4405775;26;19930;-68
2024/04/14 03:08:41;;;;;;;;;;;;;;;16.32;73.05;100943.03;4376687;27;20313;-67
2024/04/14 03:10:46;;;;;;;;;;;;;;;16.30;73.22;100942.38;4405677;26;20357;-66
2024/04/14 03:12:50;;;;;;;;;;;;;;;16.30;73.31;100943.25;4403734;26;19940;-66
2024/04/14 03:14:51;;;;;;;;;;;;;;;16.29;73.46;100941.56;4406699;26;20455;-66
2024/04/14 03:16:54;;;;;;;;;;;;;;;16.29;73.46;100940.72;4403739;26;19930;-67
2024/04/14 03:18:55;;;;;;;;;;;;;;;16.28;73.36;100944.50;4405623;26;19940;-67
2024/04/14 03:21:02;;;;;;;;;;;;;;;16.29;73.64;100947.00;4405819;26;19934;-66
2024/04/14 03:23:03;;;;;;;;;;;;;;;16.29;73.64;100947.00;4405998;26;20287;-66
2024/04/14 03:25:08;;;;;;;;;;;;;;;16.30;73.72;100945.09;4405980;26;20307;-67
2024/04/14 03:27:09;;;;;;;;;;;;;;;16.29;73.49;100946.19;4406023;26;19934;-67
2024/04/14 03:29:13;;;;;;;;;;;;;;;16.29;73.86;100948.91;4403172;26;19937;-68
2024/04/14 03:31:13;;;;;;;;;;;;;;;16.28;74.03;100942.59;4405238;26;19998;-68
2024/04/14 03:33:18;;;;;;;;;;;;;;;16.28;73.92;100944.50;4406277;26;19999;-66
2024/04/14 03:35:19;;;;;;;;;;;;;;;16.27;74.05;100949.13;4406475;26;20000;-67
2024/04/14 03:37:25;;;;;;;;;;;;;;;16.29;74.11;100951.63;4405147;26;19935;-66
2024/04/14 03:39:26;;;;;;;;;;;;;;;16.28;73.86;100950.78;4406299;26;19931;-66
2024/04/14 03:41:30;;;;;;;;;;;;;;;16.28;73.93;100944.50;4405170;26;19931;-67
2024/04/14 03:43:31;;;;;;;;;;;;;;;16.28;74.34;100956.22;4405953;26;19930;-66
2024/04/14 03:45:35;;;;;;;;;;;;;;;16.29;74.31;100951.63;4406014;26;20434;-67
2024/04/14 03:47:36;;;;;;;;;;;;;;;16.29;74.42;100955.19;4407131;26;19941;-67
2024/04/14 03:49:39;;;;;;;;;;;;;;;16.30;74.54;100954.16;4408312;26;19938;-67
2024/04/14 03:51:40;;;;;;;;;;;;;;;16.31;74.28;100966.69;4409235;26;20379;-67
2024/04/14 03:53:47;;;;;;;;;;;;;;;16.33;74.51;100963.75;4405790;26;19930;-67
2024/04/14 03:55:48;;;;;;;;;;;;;;;16.34;74.34;100962.72;4351853;27;20022;-67
2024/04/14 03:57:52;;;;;;;;;;;;;;;16.35;74.34;100965.25;4405947;26;19930;-66
2024/04/14 03:59:53;;;;;;;;;;;;;;;16.36;74.64;100968.81;4406471;26;19937;-68
2024/04/14 04:01:57;;;;;;;;;;;;;;;16.37;74.48;100963.13;4408558;26;20299;-69
2024/04/14 04:03:58;;;;;;;;;;;;;;;16.39;74.76;100958.34;4408850;26;19930;-66
2024/04/14 04:06:03;;;;;;;;;;;;;;;16.40;74.26;100965.44;4408530;26;19937;-67
2024/04/14 04:08:05;;;;;;;;;;;;;;;16.42;74.36;100967.13;4408526;26;19938;-67
2024/04/14 04:10:12;;;;;;;;;;;;;;;16.42;74.61;100967.13;4407404;26;19941;-66
2024/04/14 04:12:13;;;;;;;;;;;;;;;16.44;74.85;100974.06;4408291;26;19999;-67
2024/04/14 04:14:17;;;;;;;;;;;;;;;16.46;74.78;100991.03;4405370;26;20315;-67
2024/04/14 04:16:18;;;;;;;;;;;;;;;16.48;74.84;100979.94;4433765;26;19930;-67
2024/04/14 04:18:22;;;;;;;;;;;;;;;16.49;74.79;100982.44;4405264;26;19934;-67
2024/04/14 04:20:23;;;;;;;;;;;;;;;16.50;74.74;100978.66;4408185;26;20015;-68
2024/04/14 04:22:27;;;;;;;;;;;;;;;16.51;75.04;100980.34;4407963;26;20279;-67
2024/04/14 04:24:28;;;;;;;;;;;;;;;16.53;74.85;100975.50;4407357;26;19930;-66
2024/04/14 04:26:34;;;;;;;;;;;;;;;16.55;74.74;100981.59;4404133;26;19938;-66
2024/04/14 04:28:35;;;;;;;;;;;;;;;16.56;74.66;100980.53;4407504;26;20426;-67
2024/04/14 04:30:39;;;;;;;;;;;;;;;16.58;74.93;100980.31;4408193;26;21029;-67
2024/04/14 04:32:40;;;;;;;;;;;;;;;16.60;74.99;100980.09;4408183;26;19937;-68
2024/04/14 04:34:43;;;;;;;;;;;;;;;16.61;75.17;100981.81;4406532;26;19930;-67
2024/04/14 04:36:44;;;;;;;;;;;;;;;16.62;74.87;100988.94;4406329;26;19942;-68
2024/04/14 04:38:48;;;;;;;;;;;;;;;16.64;75.20;100997.75;4408667;26;19937;-67
2024/04/14 04:40:49;;;;;;;;;;;;;;;16.65;74.94;100994.81;4406997;26;19935;-67
2024/04/14 04:42:55;;;;;;;;;;;;;;;16.67;74.93;101000.03;4407695;26;19930;-68
2024/04/14 04:44:56;;;;;;;;;;;;;;;16.69;74.70;100997.94;4407592;26;19930;-67
2024/04/14 04:47:00;;;;;;;;;;;;;;;16.69;74.90;100998.78;4403635;26;19942;-67
2024/04/14 04:49:01;;;;;;;;;;;;;;;16.72;74.85;101014.75;4407158;26;20010;-67
2024/04/14 04:51:05;;;;;;;;;;;;;;;16.73;74.65;101008.22;4405034;26;20018;-67
2024/04/14 04:53:06;;;;;;;;;;;;;;;16.75;74.27;101010.72;4407581;26;19938;-67
2024/04/14 04:55:09;;;;;;;;;;;;;;;16.77;74.30;101025.03;4403226;26;19930;-67
2024/04/14 04:57:10;;;;;;;;;;;;;;;16.78;74.21;101021.22;4408070;26;20009;-68
2024/04/14 04:59:18;;;;;;;;;;;;;;;16.81;73.79;101025.41;4406921;26;19930;-67
2024/04/14 05:01:19;;;;;;;;;;;;;;;16.82;73.71;101033.41;4403520;26;19937;-67
2024/04/14 05:03:22;;;;;;;;;;;;;;;16.83;73.40;101035.06;4406860;26;20272;-67
2024/04/14 05:05:24;;;;;;;;;;;;;;;16.85;73.06;101043.03;4408339;26;19930;-67
2024/04/14 05:07:28;;;;;;;;;;;;;;;16.86;72.88;101051.03;4407809;26;19937;-67
2024/04/14 05:09:29;;;;;;;;;;;;;;;16.86;73.10;101045.56;4407604;26;19930;-67
2024/04/14 05:11:32;;;;;;;;;;;;;;;16.88;73.03;101051.69;4406561;26;19937;-67
2024/04/14 05:13:33;;;;;;;;;;;;;;;16.89;72.72;101053.34;4407115;26;19937;-67
2024/04/14 05:15:39;;;;;;;;;;;;;;;16.90;72.98;101063.22;4407500;26;20358;-67
2024/04/14 05:17:40;;;;;;;;;;;;;;;16.92;72.79;101068.44;4406554;26;19934;-68
2024/04/14 05:19:44;;;;;;;;;;;;;;;16.93;72.92;101075.59;4406752;26;19930;-67
2024/04/14 05:21:45;;;;;;;;;;;;;;;16.93;72.52;101083.78;4407172;26;19930;-67
2024/04/14 05:23:49;;;;;;;;;;;;;;;16.94;72.35;101071.81;4406733;26;19942;-66
2024/04/14 05:25:50;;;;;;;;;;;;;;;16.95;72.33;101076.22;4408216;26;19950;-66
2024/04/14 05:27:53;;;;;;;;;;;;;;;16.96;71.65;101077.03;4406555;26;20000;-66
2024/04/14 05:29:54;;;;;;;;;;;;;;;16.96;71.36;101079.78;4407343;26;19940;-68
2024/04/14 05:32:01;;;;;;;;;;;;;;;16.96;71.36;101086.09;4406972;26;20387;-68
2024/04/14 05:34:01;;;;;;;;;;;;;;;16.97;71.10;101092.38;4406921;26;19934;-67
2024/04/14 05:36:05;;;;;;;;;;;;;;;16.97;71.20;101073.28;4406474;26;20331;-66
2024/04/14 05:38:06;;;;;;;;;;;;;;;16.97;70.66;101082.28;4406910;26;19929;-67
2024/04/14 05:40:10;;;;;;;;;;;;;;;16.97;70.56;101079.56;4406994;26;19960;-69
2024/04/14 05:42:11;;;;;;;;;;;;;;;16.98;70.30;101089.44;4407628;26;19931;-66
2024/04/14 05:44:15;;;;;;;;;;;;;;;16.98;69.51;101085.88;4407339;26;19930;-67
2024/04/14 05:46:16;;;;;;;;;;;;;;;16.99;69.57;101095.72;4405470;26;19930;-67
2024/04/14 05:48:19;;;;;;;;;;;;;;;16.99;69.23;101093.00;4406575;26;19934;-66
2024/04/14 05:50:23;;;;;;;;;;;;;;;16.99;68.73;101106.63;4406950;26;19974;-66
2024/04/14 05:52:24;;;;;;;;;;;;;;;16.98;68.42;101100.34;4406084;26;19937;-66
2024/04/14 05:54:28;;;;;;;;;;;;;;;16.98;68.16;101104.97;4407325;26;19930;-67
2024/04/14 05:56:29;;;;;;;;;;;;;;;16.98;68.09;101097.63;4406327;26;19938;-67
2024/04/14 05:58:30;;;;;;;;;;;;;;;16.98;68.12;101119.44;4402968;26;19930;-67
2024/04/14 06:00:34;;;;;;;;;;;;;;;16.98;68.25;101113.16;4405252;26;20362;-67
2024/04/14 06:02:35;;;;;;;;;;;;;;;16.97;68.06;101115.03;4407683;26;19937;-67
2024/04/14 06:04:42;;;;;;;;;;;;;;;16.98;67.88;101115.91;4406727;26;20338;-67
2024/04/14 06:06:43;;;;;;;;;;;;;;;16.97;67.61;101134.13;4406709;26;19942;-67
2024/04/14 06:08:47;;;;;;;;;;;;;;;16.97;67.19;101120.50;4406195;26;19930;-67
2024/04/14 06:10:48;;;;;;;;;;;;;;;16.97;67.04;101133.31;4406389;26;20256;-68
2024/04/14 06:12:52;;;;;;;;;;;;;;;16.96;66.81;101135.19;4407018;26;20276;-67
2024/04/14 06:14:53;;;;;;;;;;;;;;;16.97;66.78;101138.75;4405953;26;19937;-66
2024/04/14 06:16:56;;;;;;;;;;;;;;;16.97;66.56;101138.75;4403427;26;20279;-68
2024/04/14 06:18:57;;;;;;;;;;;;;;;16.96;66.64;101134.34;4406308;26;20001;-68
2024/04/14 06:21:03;;;;;;;;;;;;;;;16.95;66.28;101141.69;4406688;26;20288;-67
2024/04/14 06:23:04;;;;;;;;;;;;;;;16.96;66.75;101139.81;4407068;26;19945;-67
2024/04/14 06:25:09;;;;;;;;;;;;;;;16.95;66.46;101130.78;4407225;26;19937;-67
2024/04/14 06:27:10;;;;;;;;;;;;;;;16.94;66.83;101145.47;4406752;26;19938;-68
2024/04/14 06:29:14;;;;;;;;;;;;;;;16.96;66.72;101137.94;4406620;26;20375;-66
2024/04/14 06:31:16;;;;;;;;;;;;;;;16.96;66.57;101145.25;4406751;26;19930;-67
2024/04/14 06:33:20;;;;;;;;;;;;;;;16.96;66.07;101137.06;4407118;26;19940;-67
2024/04/14 06:35:21;;;;;;;;;;;;;;;16.96;66.50;101151.56;4407901;26;20232;-67
2024/04/14 06:37:27;;;;;;;;;;;;;;;16.96;66.26;101156.16;4382302;26;19931;-68
2024/04/14 06:39:28;;;;;;;;;;;;;;;16.97;66.23;101166.03;4404930;26;19937;-67
2024/04/14 06:41:32;;;;;;;;;;;;;;;16.96;66.50;101162.50;4406026;26;19930;-67
2024/04/14 06:43:32;;;;;;;;;;;;;;;16.96;66.23;101164.34;4406943;26;19942;-66
2024/04/14 06:45:36;;;;;;;;;;;;;;;16.97;66.40;101164.16;4348383;27;19946;-67
2024/04/14 06:47:39;;;;;;;;;;;;;;;16.97;66.25;101160.59;4403435;26;20272;-67
2024/04/14 06:49:42;;;;;;;;;;;;;;;16.96;66.12;101172.53;4405309;26;19930;-67
2024/04/14 06:51:43;;;;;;;;;;;;;;;16.96;65.67;101173.41;4406482;26;20356;-66
2024/04/14 06:53:50;;;;;;;;;;;;;;;16.97;65.66;101175.06;4404705;26;19937;-67
2024/04/14 06:55:51;;;;;;;;;;;;;;;16.97;65.84;101172.34;4406933;26;19937;-68
2024/04/14 06:57:54;;;;;;;;;;;;;;;16.97;65.71;101176.97;4404718;26;19931;-69
2024/04/14 06:59:55;;;;;;;;;;;;;;;16.97;65.74;101177.78;4406419;26;20356;-67
2024/04/14 07:01:59;;;;;;;;;;;;;;;16.98;65.60;101165.00;4405120;26;19930;-67
2024/04/14 07:04:00;;;;;;;;;;;;;;;16.98;65.83;101184.09;4405786;26;20376;-66
2024/04/14 07:06:04;;;;;;;;;;;;;;;16.98;65.56;101189.56;4406123;26;19937;-67
2024/04/14 07:08:05;;;;;;;;;;;;;;;16.97;65.25;101177.78;4405950;26;20007;-67
2024/04/14 07:10:11;;;;;;;;;;;;;;;16.97;65.22;101183.25;4404662;26;19934;-68
2024/04/14 07:12:12;;;;;;;;;;;;;;;16.97;65.40;101188.69;4405281;26;19943;-68
2024/04/14 07:14:16;;;;;;;;;;;;;;;16.97;65.45;101183.25;4402081;26;20494;-66
2024/04/14 07:16:17;;;;;;;;;;;;;;;16.98;64.89;101195.03;4403455;26;19930;-67
2024/04/14 07:18:21;;;;;;;;;;;;;;;16.97;64.49;101196.88;4392734;26;20378;-67
2024/04/14 07:20:22;;;;;;;;;;;;;;;16.98;64.08;101197.75;4397204;26;19939;-66
2024/04/14 07:22:26;;;;;;;;;;;;;;;16.97;63.87;101199.63;4401528;26;20278;-67
2024/04/14 07:24:27;;;;;;;;;;;;;;;16.97;64.09;101207.81;4404360;26;19970;-67
2024/04/14 07:26:33;;;;;;;;;;;;;;;16.96;63.77;101206.13;4403953;26;19937;-67
2024/04/14 07:28:34;;;;;;;;;;;;;;;16.95;63.19;101203.63;4403252;26;20372;-70
2024/04/14 07:30:38;;;;;;;;;;;;;;;16.96;63.32;101205.28;4402990;26;19930;-67
2024/04/14 07:32:39;;;;;;;;;;;;;;;16.96;63.11;101224.38;4404812;26;20440;-68
2024/04/14 07:34:43;;;;;;;;;;;;;;;16.95;63.24;101220.81;4402673;26;19941;-67
2024/04/14 07:36:44;;;;;;;;;;;;;;;16.97;63.45;101226.06;4404714;26;20469;-68
2024/04/14 07:38:48;;;;;;;;;;;;;;;16.96;62.85;101224.38;4404174;26;19930;-67
2024/04/14 07:40:49;;;;;;;;;;;;;;;16.95;62.67;101229.00;4403135;26;19930;-68
2024/04/14 07:42:55;;;;;;;;;;;;;;;16.95;62.22;101220.81;4402814;26;20364;-67
2024/04/14 07:44:56;;;;;;;;;;;;;;;16.95;62.38;101218.09;4404162;26;19933;-67
2024/04/14 07:47:00;;;;;;;;;;;;;;;16.94;61.60;101224.59;4400970;26;19935;-68
2024/04/14 07:49:00;;;;;;;;;;;;;;;16.95;61.69;101223.56;4402640;26;19930;-67
2024/04/14 07:51:04;;;;;;;;;;;;;;;16.95;61.08;101228.19;4401453;26;19934;-68
2024/04/14 07:53:05;;;;;;;;;;;;;;;16.96;60.83;101232.56;4404223;26;20349;-68
2024/04/14 07:55:09;;;;;;;;;;;;;;;16.95;60.31;101239.09;4403408;26;19934;-67
2024/04/14 07:57:11;;;;;;;;;;;;;;;16.95;59.84;101231.72;4405007;26;19966;-69
2024/04/14 07:59:17;;;;;;;;;;;;;;;16.95;60.02;101230.91;4402985;26;19959;-68
2024/04/14 08:01:18;;;;;;;;;;;;;;;16.95;60.21;101236.38;4404709;26;19941;-67
2024/04/14 08:03:22;;;;;;;;;;;;;;;16.95;59.70;101242.66;4402169;26;19930;-67
2024/04/14 08:05:23;;;;;;;;;;;;;;;16.95;59.40;101242.66;4401570;26;20298;-67
2024/04/14 08:07:26;;;;;;;;;;;;;;;16.95;59.50;101245.38;4404231;26;20436;-68
2024/04/14 08:09:28;;;;;;;;;;;;;;;16.95;59.86;101242.66;4404525;26;20359;-68
2024/04/14 08:11:32;;;;;;;;;;;;;;;16.97;60.00;101237.00;4400292;26;19938;-67
2024/04/14 08:13:32;;;;;;;;;;;;;;;16.97;59.50;101234.25;4348350;27;19992;-67
2024/04/14 08:15:41;;;;;;;;;;;;;;;16.97;59.64;101237.00;4401530;26;20105;-68
2024/04/14 08:17:42;;;;;;;;;;;;;;;16.99;58.72;101243.06;4347844;27;19931;-66
2024/04/14 08:19:46;;;;;;;;;;;;;;;16.99;58.25;101245.78;4372444;26;19945;-68
2024/04/14 08:21:47;;;;;;;;;;;;;;;16.99;57.84;101252.13;4359004;27;19961;-67
2024/04/14 08:23:51;;;;;;;;;;;;;;;17.00;58.14;101248.31;4403014;26;19930;-67
2024/04/14 08:25:52;;;;;;;;;;;;;;;17.01;57.82;101255.47;4402084;26;19930;-67
2024/04/14 08:27:55;;;;;;;;;;;;;;;17.03;57.56;101260.72;4401712;26;20480;-67
2024/04/14 08:29:56;;;;;;;;;;;;;;;17.04;57.42;101265.13;4403625;26;19930;-67
2024/04/14 08:32:03;;;;;;;;;;;;;;;17.05;57.09;101255.88;4405375;26;19930;-66
2024/04/14 08:34:05;;;;;;;;;;;;;;;17.06;57.11;101260.31;4402395;26;19931;-67
2024/04/14 08:36:09;;;;;;;;;;;;;;;17.07;56.83;101270.19;4405901;26;20273;-66
2024/04/14 08:38:10;;;;;;;;;;;;;;;17.07;56.65;101281.09;4407214;26;19930;-68
2024/04/14 08:40:14;;;;;;;;;;;;;;;17.09;56.58;101273.53;4405898;26;20376;-67
2024/04/14 08:42:16;;;;;;;;;;;;;;;17.10;56.50;101259.69;4406181;26;19938;-67
2024/04/14 08:44:19;;;;;;;;;;;;;;;17.11;55.69;101255.06;4370335;27;20026;-67
2024/04/14 08:46:21;;;;;;;;;;;;;;;17.11;55.57;101265.97;4404632;26;19930;-68
2024/04/14 08:48:27;;;;;;;;;;;;;;;17.13;55.31;101272.06;4406415;26;19937;-67
2024/04/14 08:50:28;;;;;;;;;;;;;;;17.13;55.11;101280.25;4405505;26;19930;-67
2024/04/14 08:52:32;;;;;;;;;;;;;;;17.14;54.83;101276.47;4402124;26;20368;-68
2024/04/14 08:54:33;;;;;;;;;;;;;;;17.14;54.22;101284.66;4403348;26;19947;-67
2024/04/14 08:56:37;;;;;;;;;;;;;;;17.14;54.24;101287.38;4404518;26;20272;-67
2024/04/14 08:58:38;;;;;;;;;;;;;;;17.15;53.85;101289.09;4406079;26;19930;-67
2024/04/14 09:00:42;;;;;;;;;;;;;;;17.16;53.98;101295.38;4406017;26;20579;-67
2024/04/14 09:02:45;;;;;;;;;;;;;;;17.16;54.37;101288.00;4406624;26;19930;-68
2024/04/14 09:04:49;;;;;;;;;;;;;;;17.16;54.25;101296.19;4405723;26;19930;-67
2024/04/14 09:06:53;;;;;;;;;;;;;;;17.17;54.32;101283.41;4375067;27;20002;-67
2024/04/14 09:08:54;;;;;;;;;;;;;;;17.17;54.14;101286.97;4325251;27;19936;-67
2024/04/14 09:10:55;;;;;;;;;;;;;;;17.18;53.99;101288.66;4404358;26;20379;-68
2024/04/14 09:12:59;;;;;;;;;;;;;;;17.20;54.55;101289.28;4404343;26;19936;-68
2024/04/14 09:15:00;;;;;;;;;;;;;;;17.21;54.52;101284.66;4404455;26;19931;-68
2024/04/14 09:17:05;;;;;;;;;;;;;;;17.23;55.08;101288.03;4401598;26;20004;-68
2024/04/14 09:19:06;;;;;;;;;;;;;;;17.25;55.69;101300.41;4404034;26;19931;-67
2024/04/14 09:21:13;;;;;;;;;;;;;;;17.25;55.30;101316.78;4402696;26;20321;-67
2024/04/14 09:23:14;;;;;;;;;;;;;;;17.28;54.66;101291.81;4349379;27;19939;-68
2024/04/14 09:25:18;;;;;;;;;;;;;;;17.28;54.75;101291.81;4403737;26;19944;-68
2024/04/14 09:27:23;;;;;;;;;;;;;;;17.29;55.33;101296.25;4404301;26;20286;-68
2024/04/14 09:29:27;;;;;;;;;;;;;;;17.29;53.97;101289.94;4373224;26;19937;-68
2024/04/14 09:31:28;;;;;;;;;;;;;;;17.29;53.31;101287.22;4403829;26;19937;-67
2024/04/14 09:33:31;;;;;;;;;;;;;;;17.31;53.82;101297.94;4405627;26;20303;-68
2024/04/14 09:35:33;;;;;;;;;;;;;;;17.30;53.51;101299.78;4404886;26;19930;-67
2024/04/14 09:37:40;;;;;;;;;;;;;;;17.31;53.93;101298.75;4387567;26;19952;-67
2024/04/14 09:39:41;;;;;;;;;;;;;;;17.33;54.73;101313.03;4404835;26;19941;-68
2024/04/14 09:41:45;;;;;;;;;;;;;;;17.32;53.71;101305.91;4404594;26;19945;-67
2024/04/14 09:43:46;;;;;;;;;;;;;;;17.33;53.48;101304.84;4401567;26;20074;-67
2024/04/14 09:45:49;;;;;;;;;;;;;;;17.32;52.38;101305.91;4401902;26;21287;-67
2024/04/14 09:47:52;;;;;;;;;;;;;;;17.32;52.01;101318.69;4351754;27;19931;-68
2024/04/14 09:49:56;;;;;;;;;;;;;;;17.32;51.59;101303.19;4404581;26;20308;-67
2024/04/14 09:51:57;;;;;;;;;;;;;;;17.31;51.45;101322.50;4404081;26;20037;-67
2024/04/14 09:54:03;;;;;;;;;;;;;;;17.31;52.03;101315.13;4403565;26;19942;-67
2024/04/14 09:56:05;;;;;;;;;;;;;;;17.31;51.28;101326.06;4350874;27;21200;-68
2024/04/14 09:58:08;;;;;;;;;;;;;;;17.31;50.75;101325.22;4401692;26;20399;-66
2024/04/14 10:00:10;;;;;;;;;;;;;;;17.29;50.25;101331.72;4402018;26;19950;-67
2024/04/14 10:02:15;;;;;;;;;;;;;;;17.29;49.80;101325.44;4403988;26;19930;-68
2024/04/14 10:04:16;;;;;;;;;;;;;;;17.28;49.84;101321.84;4404247;26;20390;-68
2024/04/14 10:06:19;;;;;;;;;;;;;;;17.28;49.13;101313.66;4404591;26;19937;-67
2024/04/14 10:08:20;;;;;;;;;;;;;;;17.28;48.70;101321.00;4403447;26;20000;-69
2024/04/14 10:10:28;;;;;;;;;;;;;;;17.27;48.11;101325.66;4401992;26;19930;-69
2024/04/14 10:12:29;;;;;;;;;;;;;;;17.27;46.95;101333.84;4378602;27;20013;-69
2024/04/14 10:14:43;;;;;;;;;;;;;;;17.25;46.67;101322.25;4401272;26;20280;-69
2024/04/14 10:16:51;;;;;;;;;;;;;;;17.27;47.43;101327.50;4403726;26;19937;-69
2024/04/14 10:18:55;;;;;;;;;;;;;;;17.27;46.78;101320.19;4403790;26;19934;-69
2024/04/14 10:21:01;;;;;;;;;;;;;;;17.27;47.91;101322.91;4400873;26;19950;-69
2024/04/14 10:23:08;;;;;;;;;;;;;;;17.26;47.16;101326.69;4395995;26;19942;-69
2024/04/14 10:25:17;;;;;;;;;;;;;;;17.25;45.80;101326.88;4399098;26;19934;-69
2024/04/14 10:27:23;;;;;;;;;;;;;;;17.25;45.31;101332.34;4398887;26;20376;-69
2024/04/14 10:29:24;;;;;;;;;;;;;;;17.25;45.88;101338.63;4400828;26;19930;-70